Goulimime Airport


Codes: MA-GLN/GLN
Name: Goulimime Airport
City: Goulimime
Country: Morocco
Elevation: 984 ft.

Photos at Goulimime Airport


   Photos courtesy of SpottingLog. You can add your own sightings and photos by signing up for a free trial today.



No photos found.

Weather at Goulimime Airport


Time (UTC)DescriptionTempratureWindCloud coverageVisibilityPressureHumidity
16-Jun-2024 09:00Broken Clouds21°C7 mph, W53%10000m1014hPa68%
16-Jun-2024 12:00Scattered Clouds23°C13 mph, W44%10000m1014hPa58%
16-Jun-2024 15:00Few Clouds25°C18 mph, W18%10000m1013hPa49%
16-Jun-2024 18:00Clear Sky25°C13 mph, NW0%10000m1012hPa48%
16-Jun-2024 21:00Clear Sky19°C7 mph, W0%10000m1014hPa76%
17-Jun-2024 00:00Clear Sky17°C7 mph, W0%10000m1015hPa86%
17-Jun-2024 03:00Clear Sky16°C4 mph, W3%10000m1014hPa94%
17-Jun-2024 06:00Few Clouds16°C4 mph, NW15%10000m1014hPa89%
17-Jun-2024 09:00Few Clouds21°C4 mph, W18%10000m1014hPa63%
17-Jun-2024 12:00Clear Sky29°C11 mph, W8%10000m1013hPa32%
17-Jun-2024 15:00Clear Sky30°C16 mph, W0%10000m1012hPa32%
17-Jun-2024 18:00Clear Sky26°C13 mph, NW0%10000m1012hPa45%
17-Jun-2024 21:00Clear Sky20°C7 mph, W1%10000m1015hPa72%
18-Jun-2024 00:00Clear Sky18°C4 mph, W0%10000m1015hPa77%
18-Jun-2024 03:00Clear Sky17°C4 mph, W0%10000m1014hPa88%
18-Jun-2024 06:00Clear Sky16°C4 mph, W0%8660m1015hPa92%
18-Jun-2024 09:00Clear Sky22°C7 mph, NW0%10000m1015hPa59%
18-Jun-2024 12:00Clear Sky29°C16 mph, NW10%10000m1015hPa32%
18-Jun-2024 15:00Clear Sky31°C16 mph, NW6%10000m1014hPa28%
18-Jun-2024 18:00Few Clouds27°C16 mph, NW13%10000m1014hPa30%
18-Jun-2024 21:00Clear Sky20°C9 mph, NW3%10000m1017hPa57%
19-Jun-2024 00:00Clear Sky18°C4 mph, NW2%10000m1017hPa68%
19-Jun-2024 03:00Clear Sky17°C4 mph, NW0%10000m1016hPa86%
19-Jun-2024 06:00Clear Sky16°C4 mph, NW0%10000m1016hPa96%
19-Jun-2024 09:00Clear Sky22°C11 mph, NW0%10000m1016hPa56%
19-Jun-2024 12:00Clear Sky28°C18 mph, NW0%10000m1015hPa35%
19-Jun-2024 15:00Clear Sky27°C18 mph, NW0%10000m1015hPa34%
19-Jun-2024 18:00Clear Sky23°C16 mph, NW0%10000m1015hPa44%
19-Jun-2024 21:00Clear Sky18°C11 mph, NW0%10000m1018hPa57%
20-Jun-2024 00:00Clear Sky16°C7 mph, NW0%10000m1018hPa66%
20-Jun-2024 03:00Clear Sky15°C4 mph, NW2%10000m1017hPa83%
20-Jun-2024 06:00Clear Sky14°C7 mph, NW3%10000m1016hPa91%
20-Jun-2024 09:00Clear Sky21°C11 mph, NW1%10000m1016hPa52%
20-Jun-2024 12:00Clear Sky26°C18 mph, NW1%10000m1015hPa30%
20-Jun-2024 15:00Clear Sky26°C18 mph, NW0%10000m1014hPa33%
20-Jun-2024 18:00Clear Sky23°C18 mph, NW0%10000m1014hPa50%
20-Jun-2024 21:00Clear Sky18°C9 mph, NW0%10000m1016hPa74%
21-Jun-2024 00:00Clear Sky16°C7 mph, NW3%10000m1016hPa85%
21-Jun-2024 03:00Few Clouds16°C4 mph, NW20%10000m1014hPa92%
21-Jun-2024 06:00Scattered Clouds15°C4 mph, NW26%10000m1014hPa92%